Time;durP1;ratioP1;P1;durP2;ratioP2;P2;SDS_P1;SDS_P2;PMS_P1;PMS_P2;Temp;Humidity;BMP_temperature;BMP_pressure;BME280_temperature;BME280_humidity;BME280_pressure;Samples;Min_cycle;Max_cycle;Signal;HPM_P1;HPM_P2
2023/12/18 00:01:46;;;;;;;10.93;8.40;;;21.40;74.00;;;;;;5032766;28;20486;-56
2023/12/18 00:04:13;;;;;;;8.03;6.00;;;21.40;73.90;;;;;;5031884;28;20219;-57
2023/12/18 00:06:41;;;;;;;13.27;7.40;;;21.40;73.90;;;;;;5029809;28;20461;-57
2023/12/18 00:09:07;;;;;;;11.60;8.20;;;21.40;74.00;;;;;;5023809;28;21283;-55
2023/12/18 00:11:34;;;;;;;11.30;6.97;;;21.40;74.00;;;;;;5023884;28;20464;-58
2023/12/18 00:14:01;;;;;;;11.60;7.38;;;21.30;73.90;;;;;;5023397;28;20204;-58
2023/12/18 00:16:28;;;;;;;13.00;7.00;;;21.30;74.00;;;;;;5022670;28;20194;-55
2023/12/18 00:18:55;;;;;;;10.07;6.30;;;21.30;74.00;;;;;;5018788;28;20461;-56
2023/12/18 00:21:22;;;;;;;9.73;7.00;;;21.30;73.90;;;;;;5025904;28;20528;-57
2023/12/18 00:23:50;;;;;;;11.15;7.57;;;21.30;74.00;;;;;;5031614;28;20455;-58
2023/12/18 00:26:16;;;;;;;12.90;7.23;;;21.30;74.00;;;;;;5029557;28;20673;-54
2023/12/18 00:28:43;;;;;;;10.73;7.60;;;21.30;73.90;;;;;;5032730;28;20462;-58
2023/12/18 00:31:10;;;;;;;12.60;7.28;;;21.30;74.10;;;;;;5029955;28;21273;-57
2023/12/18 00:33:36;;;;;;;8.83;5.73;;;21.30;74.10;;;;;;5033586;28;20186;-56
2023/12/18 00:36:04;;;;;;;9.80;6.67;;;21.30;74.10;;;;;;5031351;28;20884;-55
2023/12/18 00:38:31;;;;;;;8.80;6.50;;;21.30;74.10;;;;;;5033213;28;21273;-56
2023/12/18 00:40:59;;;;;;;12.50;6.20;;;21.30;74.10;;;;;;5030161;28;21052;-55
2023/12/18 00:43:26;;;;;;;8.57;6.83;;;21.30;74.10;;;;;;5030051;28;21167;-55
2023/12/18 00:45:53;;;;;;;7.82;5.32;;;21.30;74.10;;;;;;5027343;28;20582;-56
2023/12/18 00:48:19;;;;;;;8.83;6.70;;;21.20;74.10;;;;;;5026544;28;20202;-54
2023/12/18 00:50:46;;;;;;;11.68;6.40;;;21.20;74.00;;;;;;5028323;28;20461;-57
2023/12/18 00:53:16;;;;;;;10.57;6.80;;;21.20;74.00;;;;;;5031047;28;21185;-57
2023/12/18 00:55:42;;;;;;;8.70;6.40;;;21.30;74.30;;;;;;5031727;28;21421;-58
2023/12/18 00:58:10;;;;;;;6.60;5.90;;;21.20;74.20;;;;;;5029077;28;20639;-55
2023/12/18 01:00:37;;;;;;;8.73;6.60;;;21.20;74.10;;;;;;5030003;28;21528;-57
2023/12/18 01:03:05;;;;;;;6.93;5.30;;;21.20;75.10;;;;;;5030691;28;20491;-57
2023/12/18 01:05:32;;;;;;;8.40;5.85;;;21.20;74.20;;;;;;5031539;28;20460;-57
2023/12/18 01:07:59;;;;;;;8.23;5.40;;;21.20;74.20;;;;;;5030248;28;20198;-57
2023/12/18 01:10:26;;;;;;;11.52;6.20;;;21.20;74.00;;;;;;5027523;28;20217;-56
2023/12/18 01:12:53;;;;;;;9.25;5.88;;;21.20;74.20;;;;;;5032088;28;20205;-57
2023/12/18 01:15:21;;;;;;;7.18;6.13;;;21.20;74.20;;;;;;5028626;28;20208;-57
2023/12/18 01:17:47;;;;;;;6.68;5.72;;;21.20;74.20;;;;;;5032386;28;20330;-58
2023/12/18 01:20:14;;;;;;;9.63;5.93;;;21.20;74.10;;;;;;5030026;28;20207;-57
2023/12/18 01:22:41;;;;;;;9.10;6.07;;;21.20;74.20;;;;;;5033530;28;20489;-58
2023/12/18 01:25:08;;;;;;;6.05;5.45;;;21.20;74.10;;;;;;5030675;28;20208;-57
2023/12/18 01:27:35;;;;;;;6.97;6.13;;;21.20;74.10;;;;;;5032857;28;22195;-56
2023/12/18 01:30:02;;;;;;;8.20;5.68;;;21.20;74.20;;;;;;5031698;28;20202;-56
2023/12/18 01:32:32;;;;;;;7.65;5.47;;;21.10;74.00;;;;;;5031267;28;20231;-56
2023/12/18 01:34:59;;;;;;;8.50;5.97;;;21.10;74.10;;;;;;5029426;28;20226;-58
2023/12/18 01:37:26;;;;;;;10.80;7.17;;;21.10;74.00;;;;;;5032011;28;20205;-56
2023/12/18 01:39:53;;;;;;;8.35;4.85;;;21.10;74.10;;;;;;5031317;28;20760;-56
2023/12/18 01:42:19;;;;;;;6.67;5.27;;;21.10;74.10;;;;;;5030210;28;20219;-52
2023/12/18 01:44:48;;;;;;;7.60;5.30;;;21.10;74.00;;;;;;5029639;28;20463;-58
2023/12/18 01:47:16;;;;;;;6.97;6.28;;;21.10;74.20;;;;;;5030324;28;20475;-55
2023/12/18 01:49:45;;;;;;;8.05;5.78;;;21.10;74.10;;;;;;5032311;28;21092;-58
2023/12/18 01:52:12;;;;;;;8.05;6.07;;;21.10;74.10;;;;;;5030979;28;20210;-58
2023/12/18 01:54:40;;;;;;;6.72;5.57;;;21.00;74.00;;;;;;5027817;28;20211;-54
2023/12/18 01:57:07;;;;;;;7.30;5.40;;;21.10;74.20;;;;;;5032279;28;20198;-57
2023/12/18 01:59:35;;;;;;;9.73;6.60;;;21.10;74.10;;;;;;5029186;28;20194;-58
2023/12/18 02:02:03;;;;;;;8.10;5.60;;;21.10;74.10;;;;;;5031437;28;20547;-58
2023/12/18 02:04:30;;;;;;;8.60;5.55;;;21.00;74.20;;;;;;5027452;28;20471;-55
2023/12/18 02:07:01;;;;;;;8.02;6.18;;;21.00;74.00;;;;;;5032789;28;20197;-58
2023/12/18 02:09:28;;;;;;;6.90;5.70;;;21.00;74.00;;;;;;5027686;28;20195;-56
2023/12/18 02:11:55;;;;;;;7.93;5.47;;;21.00;74.00;;;;;;5030931;28;20598;-57
2023/12/18 02:14:22;;;;;;;6.32;5.15;;;21.00;73.90;;;;;;5026860;28;20324;-59
2023/12/18 02:16:49;;;;;;;5.55;4.88;;;21.00;74.10;;;;;;5034302;28;20770;-57
2023/12/18 02:19:23;;;;;;;5.73;4.90;;;21.00;73.90;;;;;;5031181;28;20608;-58
2023/12/18 02:21:50;;;;;;;7.20;5.20;;;21.00;74.00;;;;;;5031756;28;20593;-56
2023/12/18 02:24:18;;;;;;;7.47;4.70;;;21.00;73.90;;;;;;5034866;28;20578;-58
2023/12/18 02:26:45;;;;;;;7.18;5.13;;;21.00;74.00;;;;;;5032223;28;20482;-56
2023/12/18 02:29:12;;;;;;;10.40;5.97;;;20.90;73.90;;;;;;5027604;28;20205;-55
2023/12/18 02:31:39;;;;;;;7.90;5.30;;;21.00;74.00;;;;;;5031991;28;20457;-57
2023/12/18 02:34:06;;;;;;;6.10;5.00;;;21.00;74.20;;;;;;5030377;28;20464;-56
2023/12/18 02:36:33;;;;;;;5.05;4.07;;;20.90;73.90;;;;;;5035601;28;20209;-57
2023/12/18 02:39:00;;;;;;;5.50;4.43;;;20.90;73.90;;;;;;5031229;28;21246;-58
2023/12/18 02:41:28;;;;;;;4.47;4.05;;;21.00;73.90;;;;;;5033437;28;20198;-57
2023/12/18 02:43:54;;;;;;;8.15;4.90;;;20.90;74.00;;;;;;5027280;28;20225;-57
2023/12/18 02:46:21;;;;;;;9.02;5.70;;;20.90;73.90;;;;;;5032773;28;20205;-58
2023/12/18 02:48:48;;;;;;;8.15;5.63;;;20.90;73.80;;;;;;5032491;28;20189;-59
2023/12/18 02:51:15;;;;;;;7.38;5.13;;;21.00;74.10;;;;;;5033805;28;20195;-58
2023/12/18 02:53:41;;;;;;;7.30;4.68;;;20.90;73.90;;;;;;5032838;28;20726;-55
2023/12/18 02:56:08;;;;;;;5.40;4.78;;;21.00;74.00;;;;;;5035437;28;20197;-57
2023/12/18 02:58:36;;;;;;;7.15;4.85;;;20.90;73.90;;;;;;5031595;28;20342;-57
2023/12/18 03:01:03;;;;;;;6.05;4.70;;;20.90;73.90;;;;;;5034811;28;20198;-56
2023/12/18 03:03:30;;;;;;;6.63;4.65;;;20.90;73.80;;;;;;5032998;28;21221;-56
2023/12/18 03:05:56;;;;;;;5.18;4.38;;;20.90;73.80;;;;;;5035079;28;20209;-58
2023/12/18 03:08:23;;;;;;;6.57;4.70;;;20.80;73.70;;;;;;5032830;28;20191;-55
2023/12/18 03:10:51;;;;;;;5.95;5.07;;;21.00;73.90;;;;;;5032334;28;21365;-56
2023/12/18 03:13:17;;;;;;;6.05;4.45;;;20.90;74.00;;;;;;5033918;28;20191;-55
2023/12/18 03:15:46;;;;;;;4.68;4.20;;;20.90;73.90;;;;;;5033155;28;20322;-57
2023/12/18 03:18:12;;;;;;;5.80;4.80;;;20.90;74.00;;;;;;5033761;28;20662;-56
2023/12/18 03:20:39;;;;;;;6.13;4.72;;;20.90;73.90;;;;;;5034293;28;20201;-57
2023/12/18 03:23:06;;;;;;;6.47;4.82;;;20.90;73.80;;;;;;5033599;28;20225;-57
2023/12/18 03:25:33;;;;;;;5.70;4.18;;;20.90;73.80;;;;;;5034632;28;20213;-54
2023/12/18 03:27:59;;;;;;;7.07;5.40;;;20.90;73.80;;;;;;5034441;28;20201;-58
2023/12/18 03:30:26;;;;;;;5.35;4.20;;;20.90;74.60;;;;;;5033341;28;20203;-56
2023/12/18 03:32:55;;;;;;;4.55;4.07;;;20.90;73.80;;;;;;5033810;28;20757;-56
2023/12/18 03:35:22;;;;;;;7.35;4.38;;;20.90;73.80;;;;;;5029095;28;21194;-57
2023/12/18 03:37:48;;;;;;;6.53;3.72;;;20.90;73.90;;;;;;5035616;28;20202;-55
2023/12/18 03:40:15;;;;;;;5.88;3.70;;;20.90;73.90;;;;;;5033701;28;20660;-57
2023/12/18 03:42:42;;;;;;;4.78;3.78;;;20.90;73.90;;;;;;5033848;28;21380;-55
2023/12/18 03:45:10;;;;;;;6.43;4.55;;;20.90;73.90;;;;;;5033665;28;20206;-56
2023/12/18 03:47:36;;;;;;;5.70;4.25;;;20.80;73.80;;;;;;5033049;28;20202;-58
2023/12/18 03:50:05;;;;;;;4.47;3.83;;;20.90;73.80;;;;;;5032024;28;20743;-56
2023/12/18 03:52:32;;;;;;;6.53;4.35;;;20.90;73.80;;;;;;5032670;28;21009;-56
2023/12/18 03:54:59;;;;;;;5.82;3.67;;;20.80;73.70;;;;;;5033539;28;20198;-55
2023/12/18 03:57:26;;;;;;;4.97;4.00;;;20.90;73.90;;;;;;5032171;28;20198;-57
2023/12/18 03:59:52;;;;;;;3.97;3.25;;;20.80;73.70;;;;;;5031415;28;20215;-56
2023/12/18 04:02:19;;;;;;;4.60;3.53;;;20.80;73.70;;;;;;5034240;28;20205;-57
2023/12/18 04:08:09;;;;;;;6.85;3.85;;;20.80;73.80;;;;;;4990928;28;20292;-57
2023/12/18 04:10:36;;;;;;;6.63;4.32;;;20.80;73.70;;;;;;5026976;28;20201;-56
2023/12/18 04:13:03;;;;;;;4.13;3.20;;;20.80;74.20;;;;;;5032589;28;21100;-57
2023/12/18 04:15:30;;;;;;;4.85;3.63;;;20.80;73.80;;;;;;5033670;28;20202;-54
2023/12/18 04:17:57;;;;;;;5.40;3.20;;;20.90;73.90;;;;;;5028347;28;20201;-55
2023/12/18 04:20:24;;;;;;;4.32;3.85;;;20.80;73.70;;;;;;5029461;28;20207;-56
2023/12/18 04:22:51;;;;;;;4.93;3.53;;;20.80;73.80;;;;;;5030961;28;20221;-57
2023/12/18 04:25:20;;;;;;;4.30;3.10;;;20.80;73.80;;;;;;5034044;28;20210;-57
2023/12/18 04:27:46;;;;;;;4.80;3.60;;;20.80;73.80;;;;;;5034124;28;21361;-56
2023/12/18 04:30:13;;;;;;;5.03;3.55;;;20.80;73.70;;;;;;5028667;28;20319;-57
2023/12/18 04:32:40;;;;;;;4.53;4.13;;;20.80;73.80;;;;;;5031526;28;24399;-57
2023/12/18 04:35:07;;;;;;;6.15;4.38;;;20.80;73.70;;;;;;5026036;28;20194;-56
2023/12/18 04:37:34;;;;;;;6.03;4.63;;;20.80;73.60;;;;;;5026975;28;20794;-56
2023/12/18 04:40:03;;;;;;;4.18;3.40;;;20.80;73.70;;;;;;5034491;28;20828;-57
2023/12/18 04:42:31;;;;;;;4.88;3.55;;;20.80;73.70;;;;;;5029141;28;20203;-56
2023/12/18 04:44:58;;;;;;;4.60;3.58;;;20.80;73.70;;;;;;5029582;28;20206;-57
2023/12/18 04:47:25;;;;;;;5.55;4.70;;;20.70;73.70;;;;;;5030814;28;20206;-55
2023/12/18 04:49:52;;;;;;;6.40;4.32;;;20.80;73.60;;;;;;5030233;28;20321;-56
2023/12/18 04:52:19;;;;;;;4.13;3.40;;;20.80;73.70;;;;;;5028912;28;20198;-56
2023/12/18 04:54:46;;;;;;;5.22;3.92;;;20.80;73.70;;;;;;5031980;28;21602;-55
2023/12/18 04:57:13;;;;;;;6.30;3.80;;;20.70;73.70;;;;;;5031601;28;20190;-57
2023/12/18 04:59:41;;;;;;;5.43;3.73;;;20.80;73.70;;;;;;5031247;28;20198;-56
2023/12/18 05:02:08;;;;;;;4.72;3.90;;;20.70;73.50;;;;;;5032676;28;20463;-57
2023/12/18 05:04:34;;;;;;;4.05;3.17;;;20.70;73.50;;;;;;5030140;28;20217;-55
2023/12/18 05:07:01;;;;;;;5.95;5.25;;;20.70;73.50;;;;;;5032669;28;21297;-56
2023/12/18 05:09:28;;;;;;;5.82;4.40;;;20.70;73.50;;;;;;5031002;28;20190;-57
2023/12/18 05:11:54;;;;;;;6.72;3.97;;;20.70;73.50;;;;;;5030913;28;20198;-58
2023/12/18 05:14:21;;;;;;;3.97;3.35;;;20.70;73.50;;;;;;5031132;28;20217;-56
2023/12/18 05:16:49;;;;;;;4.07;3.20;;;20.70;73.40;;;;;;5031034;28;20197;-57
2023/12/18 05:19:16;;;;;;;3.17;2.90;;;20.70;73.60;;;;;;5028848;28;20205;-55
2023/12/18 05:21:43;;;;;;;3.50;2.88;;;20.70;73.50;;;;;;5031555;28;20205;-57
2023/12/18 05:24:09;;;;;;;3.70;3.10;;;20.70;73.50;;;;;;5030646;28;20222;-58
2023/12/18 05:26:36;;;;;;;5.07;3.58;;;20.70;73.70;;;;;;5030496;28;20233;-57
2023/12/18 05:29:03;;;;;;;4.50;3.10;;;20.70;73.50;;;;;;5030947;28;21252;-55
2023/12/18 05:31:29;;;;;;;5.15;3.83;;;20.70;73.50;;;;;;5033314;28;21139;-55
2023/12/18 05:33:58;;;;;;;5.05;3.00;;;20.70;73.50;;;;;;5027118;28;20230;-58
2023/12/18 05:36:24;;;;;;;2.93;2.40;;;20.70;73.50;;;;;;5031384;28;20212;-56
2023/12/18 05:38:51;;;;;;;3.75;3.35;;;20.70;73.50;;;;;;5030207;28;20491;-58
2023/12/18 05:41:18;;;;;;;4.80;3.13;;;20.70;73.50;;;;;;5032939;28;20194;-58
2023/12/18 05:43:44;;;;;;;4.53;3.10;;;20.70;73.50;;;;;;5031724;28;20225;-56
2023/12/18 05:46:12;;;;;;;4.82;3.28;;;20.70;73.40;;;;;;5030175;28;20215;-55
2023/12/18 05:48:38;;;;;;;3.83;3.22;;;20.70;73.50;;;;;;5029948;28;20214;-56
2023/12/18 05:51:18;;;;;;;4.07;3.40;;;20.70;73.50;;;;;;5029925;28;20193;-54
2023/12/18 05:53:44;;;;;;;3.13;2.80;;;20.60;73.40;;;;;;5031021;28;20230;-56
2023/12/18 05:56:11;;;;;;;5.13;3.95;;;20.70;73.50;;;;;;5037881;28;20795;-57
2023/12/18 05:58:38;;;;;;;3.20;2.75;;;20.70;73.50;;;;;;5036009;28;20206;-56
2023/12/18 06:01:05;;;;;;;3.93;2.60;;;20.70;73.50;;;;;;5033915;28;20202;-56
2023/12/18 06:03:31;;;;;;;3.70;3.22;;;20.60;73.40;;;;;;5036041;28;20926;-56
2023/12/18 06:05:58;;;;;;;3.60;2.85;;;20.60;73.40;;;;;;5035629;28;20206;-57
2023/12/18 06:08:26;;;;;;;4.30;3.67;;;20.70;73.50;;;;;;5031580;28;20209;-56
2023/12/18 06:10:53;;;;;;;3.60;3.25;;;20.70;73.50;;;;;;5036418;28;20466;-57
2023/12/18 06:13:19;;;;;;;2.97;2.45;;;20.70;73.40;;;;;;5033331;28;21015;-53
2023/12/18 06:15:46;;;;;;;3.50;3.17;;;20.70;73.50;;;;;;5030514;28;20206;-56
2023/12/18 06:18:12;;;;;;;3.47;3.10;;;20.70;73.50;;;;;;5034854;28;20205;-55
2023/12/18 06:20:39;;;;;;;4.68;3.10;;;20.70;73.50;;;;;;5032498;28;20203;-57
2023/12/18 06:23:06;;;;;;;4.70;4.07;;;20.60;73.40;;;;;;5034344;28;20202;-57
2023/12/18 06:25:34;;;;;;;3.97;2.33;;;20.70;73.50;;;;;;5032349;28;20199;-57
2023/12/18 06:28:00;;;;;;;3.25;2.67;;;20.70;73.40;;;;;;5035204;28;20199;-53
2023/12/18 06:30:27;;;;;;;2.88;2.60;;;20.70;73.40;;;;;;5034579;28;20202;-55
2023/12/18 06:32:54;;;;;;;3.20;2.90;;;20.70;73.50;;;;;;5036431;28;21013;-57
2023/12/18 06:35:21;;;;;;;3.42;2.80;;;20.60;73.40;;;;;;5033570;28;21227;-58
2023/12/18 06:37:47;;;;;;;6.20;2.70;;;20.60;73.30;;;;;;5032897;28;20774;-56
2023/12/18 06:40:14;;;;;;;4.32;2.67;;;20.70;73.50;;;;;;5035076;28;20605;-54
2023/12/18 06:42:43;;;;;;;3.92;3.00;;;20.60;73.30;;;;;;5036031;28;20203;-57
2023/12/18 06:45:10;;;;;;;4.15;2.80;;;20.60;73.30;;;;;;5033998;28;20219;-56
2023/12/18 06:47:37;;;;;;;4.00;3.58;;;20.70;73.40;;;;;;5029998;28;20317;-56
2023/12/18 06:50:04;;;;;;;3.33;3.00;;;20.60;73.20;;;;;;5030789;28;20288;-57
2023/12/18 06:52:30;;;;;;;3.13;2.60;;;20.60;73.30;;;;;;5030280;28;20464;-56
2023/12/18 06:54:57;;;;;;;3.05;2.50;;;20.60;73.30;;;;;;5033653;28;20209;-56
2023/12/18 06:57:24;;;;;;;3.50;2.95;;;20.60;73.40;;;;;;5033924;28;20190;-56
2023/12/18 06:59:52;;;;;;;2.78;2.45;;;20.60;73.40;;;;;;5034703;28;20202;-57
2023/12/18 07:02:18;;;;;;;3.50;3.20;;;20.60;73.30;;;;;;5034424;28;20199;-55
2023/12/18 07:04:45;;;;;;;3.35;2.80;;;20.70;73.50;;;;;;5034158;28;20321;-54
2023/12/18 07:07:12;;;;;;;3.78;2.60;;;20.60;73.50;;;;;;5033459;28;20204;-62
2023/12/18 07:09:39;;;;;;;3.38;3.00;;;20.60;73.70;;;;;;5031609;28;20280;-61
2023/12/18 07:12:06;;;;;;;5.90;2.60;;;20.60;73.60;;;;;;5033111;28;20267;-59
2023/12/18 07:14:33;;;;;;;3.08;2.53;;;20.60;73.50;;;;;;5033999;28;20205;-62
2023/12/18 07:17:01;;;;;;;5.45;3.42;;;20.60;73.70;;;;;;5032030;28;20205;-61
2023/12/18 07:19:29;;;;;;;4.68;3.03;;;20.60;73.50;;;;;;5029467;28;20202;-60
2023/12/18 07:21:56;;;;;;;4.00;3.60;;;20.60;73.70;;;;;;5031192;28;20318;-60
2023/12/18 07:24:23;;;;;;;3.90;3.10;;;20.50;73.50;;;;;;5032770;28;20943;-59
2023/12/18 07:26:49;;;;;;;4.70;3.30;;;20.50;73.30;;;;;;5035275;28;20234;-62
2023/12/18 07:29:16;;;;;;;4.93;3.35;;;20.50;73.80;;;;;;5031741;28;21093;-64
2023/12/18 07:31:42;;;;;;;9.65;2.80;;;20.50;73.20;;;;;;5030256;28;20195;-60
2023/12/18 07:34:10;;;;;;;3.58;2.55;;;20.50;73.00;;;;;;5031230;28;20384;-61
2023/12/18 07:36:40;;;;;;;3.47;3.15;;;20.50;73.00;;;;;;5034215;28;20231;-62
2023/12/18 07:39:06;;;;;;;3.80;3.25;;;20.50;72.70;;;;;;5035278;28;20352;-61
2023/12/18 07:41:33;;;;;;;4.55;3.65;;;20.50;72.80;;;;;;5033387;28;20231;-60
2023/12/18 07:44:00;;;;;;;4.57;2.90;;;20.60;72.70;;;;;;5033476;28;20247;-60
2023/12/18 07:46:27;;;;;;;5.72;3.05;;;20.40;72.60;;;;;;5031107;28;20213;-60
2023/12/18 07:48:54;;;;;;;3.35;2.88;;;20.50;72.50;;;;;;5035566;28;20202;-60
2023/12/18 07:51:22;;;;;;;2.90;2.60;;;20.60;72.80;;;;;;5032345;28;20209;-62
2023/12/18 07:53:50;;;;;;;4.10;2.63;;;20.60;72.80;;;;;;5028472;28;20285;-59
2023/12/18 07:56:16;;;;;;;5.50;3.22;;;20.60;72.90;;;;;;5033062;28;20276;-59
2023/12/18 07:58:43;;;;;;;4.57;2.70;;;20.60;73.20;;;;;;5036594;28;20214;-60
2023/12/18 08:01:10;;;;;;;3.90;2.50;;;20.70;73.40;;;;;;5032629;28;20221;-59
2023/12/18 08:03:36;;;;;;;5.60;5.10;;;20.70;73.40;;;;;;5030968;28;20206;-58
2023/12/18 08:06:03;;;;;;;3.60;3.30;;;20.70;72.80;;;;;;5033937;28;20196;-59
2023/12/18 08:08:31;;;;;;;5.03;3.47;;;20.60;72.40;;;;;;5032137;28;20221;-59
2023/12/18 08:10:58;;;;;;;6.70;4.10;;;20.70;71.50;;;;;;5031956;28;20213;-58
2023/12/18 08:13:24;;;;;;;4.32;3.42;;;20.70;71.60;;;;;;5029879;28;20299;-60
2023/12/18 08:15:51;;;;;;;6.20;3.90;;;20.70;71.70;;;;;;5029260;28;20202;-65
2023/12/18 08:18:18;;;;;;;5.28;3.70;;;20.80;72.30;;;;;;5034074;28;20209;-62
2023/12/18 08:20:45;;;;;;;5.07;3.03;;;20.80;72.70;;;;;;5038896;28;20699;-64
2023/12/18 08:23:12;;;;;;;3.55;2.83;;;20.80;73.00;;;;;;5036597;28;20206;-64
2023/12/18 08:25:40;;;;;;;5.55;3.30;;;20.80;73.30;;;;;;5034262;28;20214;-63
2023/12/18 08:28:06;;;;;;;6.18;3.15;;;20.80;73.50;;;;;;5036406;28;20201;-58
2023/12/18 08:30:33;;;;;;;4.37;3.63;;;20.90;73.60;;;;;;5039187;28;20198;-57
2023/12/18 08:33:01;;;;;;;5.18;3.08;;;20.80;71.70;;;;;;5038309;28;20461;-59
2023/12/18 08:35:27;;;;;;;3.80;3.38;;;20.70;70.30;;;;;;5036761;28;20746;-59
2023/12/18 08:37:54;;;;;;;5.23;3.73;;;20.70;71.70;;;;;;5037368;28;20203;-58
2023/12/18 08:40:21;;;;;;;4.77;3.50;;;20.80;71.80;;;;;;5037781;28;20975;-59
2023/12/18 08:42:49;;;;;;;3.00;2.70;;;20.80;72.10;;;;;;5038415;28;20464;-59
2023/12/18 08:45:16;;;;;;;3.97;2.95;;;20.90;72.40;;;;;;5037312;28;20889;-60
2023/12/18 08:47:42;;;;;;;3.55;2.55;;;20.90;72.60;;;;;;5035552;28;20202;-60
2023/12/18 08:50:10;;;;;;;6.00;4.00;;;21.00;72.60;;;;;;5031906;28;20202;-60
2023/12/18 08:52:36;;;;;;;4.97;2.53;;;20.90;72.50;;;;;;5034303;28;20466;-58
2023/12/18 08:55:03;;;;;;;5.18;4.18;;;20.90;72.50;;;;;;5035903;28;20255;-60
2023/12/18 08:57:30;;;;;;;9.10;4.20;;;20.90;72.60;;;;;;5036514;28;20657;-56
2023/12/18 08:59:58;;;;;;;5.13;3.87;;;21.00;72.70;;;;;;5036130;28;20457;-60
2023/12/18 09:02:25;;;;;;;4.63;3.83;;;21.00;72.70;;;;;;5033186;28;20459;-59
2023/12/18 09:04:51;;;;;;;7.70;3.83;;;21.00;72.50;;;;;;5036801;28;20215;-58
2023/12/18 09:07:18;;;;;;;6.10;4.57;;;21.00;72.50;;;;;;5032586;28;20726;-61
2023/12/18 09:09:44;;;;;;;5.63;3.80;;;21.00;72.40;;;;;;5034294;28;20474;-60
2023/12/18 09:12:12;;;;;;;5.03;4.10;;;21.00;72.50;;;;;;5037064;28;20682;-60
2023/12/18 09:14:38;;;;;;;6.33;4.87;;;21.00;72.50;;;;;;5035608;28;20476;-60
2023/12/18 09:17:06;;;;;;;4.63;3.70;;;21.00;72.50;;;;;;5037851;28;20464;-59
2023/12/18 09:19:34;;;;;;;6.90;3.20;;;21.00;72.60;;;;;;5033183;28;20465;-60
2023/12/18 09:22:01;;;;;;;6.65;3.42;;;21.00;72.50;;;;;;5036799;28;21265;-60
2023/12/18 09:24:28;;;;;;;4.37;3.67;;;21.10;72.60;;;;;;5035308;28;20222;-60
2023/12/18 09:26:55;;;;;;;4.90;3.97;;;21.20;72.80;;;;;;5037472;28;20458;-61
2023/12/18 09:29:23;;;;;;;4.73;4.07;;;21.10;72.70;;;;;;5035497;28;20453;-59
2023/12/18 09:31:49;;;;;;;4.67;3.63;;;21.10;72.70;;;;;;5035216;28;20457;-58
2023/12/18 09:34:17;;;;;;;6.40;4.53;;;21.10;72.70;;;;;;5036126;28;20468;-59
2023/12/18 09:36:44;;;;;;;4.97;4.17;;;21.10;72.90;;;;;;5034919;28;20208;-60
2023/12/18 09:39:11;;;;;;;7.37;5.23;;;21.10;73.20;;;;;;5035510;28;21306;-59
2023/12/18 09:41:37;;;;;;;6.68;4.85;;;21.10;73.20;;;;;;5038347;28;20500;-59
2023/12/18 09:44:04;;;;;;;6.68;5.93;;;21.10;73.20;;;;;;5036742;28;20214;-60
2023/12/18 09:46:31;;;;;;;5.93;5.33;;;21.10;73.50;;;;;;5036319;28;20203;-58
2023/12/18 09:48:58;;;;;;;8.73;5.10;;;21.10;73.50;;;;;;5031147;28;20526;-60
2023/12/18 09:51:26;;;;;;;8.53;5.80;;;21.10;73.30;;;;;;5036653;28;20543;-59
2023/12/18 09:53:54;;;;;;;7.50;5.90;;;21.10;73.20;;;;;;5031798;28;20477;-60
2023/12/18 09:56:22;;;;;;;10.27;6.32;;;21.10;73.20;;;;;;5036947;28;20506;-60
2023/12/18 09:58:49;;;;;;;8.38;5.60;;;21.10;73.40;;;;;;5036061;28;20199;-60
2023/12/18 10:01:16;;;;;;;12.15;5.35;;;21.10;73.20;;;;;;5033141;28;20206;-60
2023/12/18 10:03:43;;;;;;;7.70;5.27;;;21.10;73.40;;;;;;5035345;28;20261;-60
2023/12/18 10:06:09;;;;;;;9.02;5.25;;;21.10;73.30;;;;;;5035286;28;20484;-61
2023/12/18 10:08:38;;;;;;;7.97;5.47;;;21.20;73.40;;;;;;5035585;28;20215;-59
2023/12/18 10:11:05;;;;;;;7.13;4.63;;;21.10;73.20;;;;;;5033376;28;20469;-58
2023/12/18 10:13:31;;;;;;;6.77;5.47;;;21.20;73.40;;;;;;5035014;28;20472;-58
2023/12/18 10:15:58;;;;;;;7.32;5.55;;;21.20;73.30;;;;;;5036297;28;20801;-61
2023/12/18 10:18:25;;;;;;;6.83;5.00;;;21.20;73.30;;;;;;5033751;28;20346;-60
2023/12/18 10:20:54;;;;;;;6.40;5.53;;;21.10;73.20;;;;;;5031747;28;20466;-59
2023/12/18 10:23:20;;;;;;;8.10;5.47;;;21.10;74.00;;;;;;5034208;28;20467;-59
2023/12/18 10:25:48;;;;;;;12.20;5.20;;;21.10;73.20;;;;;;5035968;28;20486;-56
2023/12/18 10:28:15;;;;;;;5.50;4.47;;;21.10;73.20;;;;;;5034476;28;21587;-60
2023/12/18 10:30:43;;;;;;;6.23;5.63;;;21.10;73.40;;;;;;5032365;28;20499;-60
2023/12/18 10:33:10;;;;;;;7.68;5.90;;;21.10;73.50;;;;;;5033350;28;20469;-60
2023/12/18 10:35:37;;;;;;;8.30;6.17;;;21.10;73.70;;;;;;5035751;28;20211;-59
2023/12/18 10:38:05;;;;;;;11.27;6.32;;;21.10;74.00;;;;;;5036646;28;20467;-60
2023/12/18 10:40:32;;;;;;;9.43;6.27;;;21.10;74.00;;;;;;5035005;28;20198;-60
2023/12/18 10:43:08;;;;;;;12.03;7.90;;;21.10;73.80;;;;;;5040080;28;20504;-59
2023/12/18 10:45:35;;;;;;;9.63;7.10;;;21.10;74.60;;;;;;5036704;28;20562;-60
2023/12/18 10:48:03;;;;;;;11.00;7.00;;;21.10;74.40;;;;;;5037359;28;20463;-60
2023/12/18 10:50:31;;;;;;;8.83;8.03;;;21.10;74.50;;;;;;5036703;28;20217;-60
2023/12/18 10:53:00;;;;;;;12.13;7.90;;;21.20;74.30;;;;;;5027760;28;20653;-61
2023/12/18 10:55:27;;;;;;;14.30;10.23;;;21.10;75.30;;;;;;5036752;28;20584;-59
2023/12/18 10:57:57;;;;;;;16.30;9.77;;;21.20;76.80;;;;;;5038243;28;20465;-60
2023/12/18 11:00:26;;;;;;;13.63;8.67;;;21.10;75.50;;;;;;5032394;28;20461;-59
2023/12/18 11:02:54;;;;;;;14.30;10.73;;;21.20;75.20;;;;;;5036578;28;20471;-58
2023/12/18 11:05:22;;;;;;;10.43;8.33;;;21.20;75.00;;;;;;5035782;28;20487;-60
2023/12/18 11:07:50;;;;;;;9.75;7.20;;;21.20;74.90;;;;;;5035697;28;20454;-59
2023/12/18 11:10:17;;;;;;;9.90;7.57;;;21.10;74.70;;;;;;5037179;28;20190;-58
2023/12/18 11:12:44;;;;;;;12.83;8.03;;;21.20;75.00;;;;;;5032318;28;20464;-56
2023/12/18 11:15:20;;;;;;;12.30;9.17;;;21.20;75.20;;;;;;5034988;28;20473;-59
2023/12/18 11:17:57;;;;;;;11.33;7.80;;;21.10;75.60;;;;;;5031831;28;20450;-55
2023/12/18 11:20:27;;;;;;;9.47;8.47;;;21.10;75.40;;;;;;5035560;28;20957;-57
2023/12/18 11:22:57;;;;;;;9.10;8.20;;;21.10;75.30;;;;;;5033237;28;21253;-58
2023/12/18 11:25:28;;;;;;;9.60;7.10;;;21.10;75.20;;;;;;5039631;28;20807;-58
2023/12/18 11:27:54;;;;;;;10.03;8.30;;;21.20;75.50;;;;;;5041534;28;20518;-59
2023/12/18 11:30:25;;;;;;;13.23;8.68;;;21.20;75.50;;;;;;5040196;28;20460;-61
2023/12/18 11:32:53;;;;;;;11.73;8.87;;;21.10;75.40;;;;;;5034510;28;20193;-59
2023/12/18 11:35:27;;;;;;;14.00;9.17;;;21.10;75.20;;;;;;5037720;28;20463;-59
2023/12/18 11:37:59;;;;;;;9.83;8.43;;;21.10;75.50;;;;;;5036808;28;20819;-58
2023/12/18 11:40:39;;;;;;;12.00;8.77;;;21.10;75.40;;;;;;5040917;28;20856;-59
2023/12/18 11:43:07;;;;;;;12.07;8.10;;;21.10;75.30;;;;;;5035793;28;20195;-66
2023/12/18 11:45:36;;;;;;;10.90;7.70;;;21.20;75.60;;;;;;5039201;28;20535;-63
2023/12/18 11:48:05;;;;;;;9.40;6.93;;;21.20;75.70;;;;;;5042308;28;20567;-64
2023/12/18 11:50:35;;;;;;;11.57;8.52;;;21.10;75.60;;;;;;5033911;28;20514;-66
2023/12/18 11:53:02;;;;;;;8.30;6.37;;;21.10;74.60;;;;;;5035435;28;20214;-65
2023/12/18 11:55:52;;;;;;;12.18;8.35;;;21.00;74.50;;;;;;5041267;28;20465;-65
2023/12/18 11:58:20;;;;;;;8.90;7.30;;;21.10;74.80;;;;;;5041021;28;20199;-62
2023/12/18 12:00:48;;;;;;;10.13;7.97;;;21.10;74.70;;;;;;5039296;28;20503;-63
2023/12/18 12:03:17;;;;;;;10.17;7.70;;;21.10;74.80;;;;;;5035946;28;20476;-61
2023/12/18 12:05:45;;;;;;;9.43;7.13;;;21.10;74.70;;;;;;5037669;28;20472;-63
2023/12/18 12:08:12;;;;;;;10.80;7.43;;;21.10;74.80;;;;;;5040164;28;20512;-63
2023/12/18 12:10:43;;;;;;;12.52;8.00;;;21.10;74.70;;;;;;5037357;28;20465;-63
2023/12/18 12:13:18;;;;;;;8.47;7.10;;;21.10;74.70;;;;;;5040991;28;20199;-62
2023/12/18 12:15:55;;;;;;;11.40;8.53;;;21.20;74.70;;;;;;5038031;28;20463;-64
2023/12/18 12:18:25;;;;;;;7.70;6.83;;;21.20;74.60;;;;;;5040970;28;20543;-62
2023/12/18 12:20:51;;;;;;;13.23;7.57;;;21.30;74.60;;;;;;5027685;28;20472;-62
2023/12/18 12:23:18;;;;;;;7.10;6.27;;;21.10;74.40;;;;;;5037934;28;22488;-63
2023/12/18 12:25:47;;;;;;;10.87;7.50;;;21.20;74.30;;;;;;5037861;28;20472;-63
2023/12/18 12:28:15;;;;;;;9.40;7.27;;;21.20;74.20;;;;;;5037857;28;20453;-64
2023/12/18 12:30:42;;;;;;;8.40;6.87;;;21.20;74.20;;;;;;5036757;28;20559;-62
2023/12/18 12:33:08;;;;;;;10.77;7.20;;;21.30;74.60;;;;;;5037523;28;20508;-62
2023/12/18 12:35:36;;;;;;;11.17;7.53;;;21.30;74.30;;;;;;5033931;28;20566;-63
2023/12/18 12:38:05;;;;;;;9.30;7.57;;;21.30;74.70;;;;;;5036976;28;20506;-62
2023/12/18 12:40:42;;;;;;;7.80;6.13;;;21.30;74.70;;;;;;5037464;28;21071;-62
2023/12/18 12:43:10;;;;;;;7.03;6.23;;;21.30;74.70;;;;;;5036379;28;20445;-58
2023/12/18 12:45:38;;;;;;;9.70;6.97;;;21.40;75.00;;;;;;5036171;28;20837;-59
2023/12/18 12:48:08;;;;;;;10.73;7.40;;;21.30;74.90;;;;;;5040182;28;20456;-58
2023/12/18 12:50:40;;;;;;;9.70;6.27;;;21.40;75.00;;;;;;5038584;28;20453;-58